sensor_id;sensor_type;location;lat;lon;timestamp;P1;durP1;ratioP1;P2;durP2;ratioP2
6131;SDS011;3097;42.692;23.278;2024-01-15T00:00:47;222.33;;;74.77;;
6131;SDS011;3097;42.692;23.278;2024-01-15T00:03:14;232.30;;;76.47;;
6131;SDS011;3097;42.692;23.278;2024-01-15T00:05:39;239.50;;;75.83;;
6131;SDS011;3097;42.692;23.278;2024-01-15T00:08:05;239.83;;;79.13;;
6131;SDS011;3097;42.692;23.278;2024-01-15T00:10:31;223.10;;;72.40;;
6131;SDS011;3097;42.692;23.278;2024-01-15T00:12:56;215.87;;;73.97;;
6131;SDS011;3097;42.692;23.278;2024-01-15T00:15:22;215.07;;;71.07;;
6131;SDS011;3097;42.692;23.278;2024-01-15T00:17:47;213.43;;;72.50;;
6131;SDS011;3097;42.692;23.278;2024-01-15T00:20:13;202.83;;;64.87;;
6131;SDS011;3097;42.692;23.278;2024-01-15T00:22:38;203.30;;;68.27;;
6131;SDS011;3097;42.692;23.278;2024-01-15T00:25:04;201.13;;;66.67;;
6131;SDS011;3097;42.692;23.278;2024-01-15T00:27:30;200.87;;;66.93;;
6131;SDS011;3097;42.692;23.278;2024-01-15T00:29:55;199.93;;;64.33;;
6131;SDS011;3097;42.692;23.278;2024-01-15T00:32:21;213.90;;;70.47;;
6131;SDS011;3097;42.692;23.278;2024-01-15T00:34:46;198.87;;;66.23;;
6131;SDS011;3097;42.692;23.278;2024-01-15T00:37:12;207.57;;;71.20;;
6131;SDS011;3097;42.692;23.278;2024-01-15T00:39:38;215.13;;;72.73;;
6131;SDS011;3097;42.692;23.278;2024-01-15T00:42:03;204.77;;;72.93;;
6131;SDS011;3097;42.692;23.278;2024-01-15T00:44:29;255.30;;;86.87;;
6131;SDS011;3097;42.692;23.278;2024-01-15T00:46:54;215.50;;;67.03;;
6131;SDS011;3097;42.692;23.278;2024-01-15T00:49:20;189.93;;;63.37;;
6131;SDS011;3097;42.692;23.278;2024-01-15T00:51:46;195.43;;;60.63;;
6131;SDS011;3097;42.692;23.278;2024-01-15T00:54:12;169.43;;;58.23;;
6131;SDS011;3097;42.692;23.278;2024-01-15T00:56:38;163.10;;;54.93;;
6131;SDS011;3097;42.692;23.278;2024-01-15T00:59:03;153.23;;;50.70;;
6131;SDS011;3097;42.692;23.278;2024-01-15T01:01:29;145.23;;;47.97;;
6131;SDS011;3097;42.692;23.278;2024-01-15T01:03:54;144.53;;;49.73;;
6131;SDS011;3097;42.692;23.278;2024-01-15T01:06:20;139.10;;;49.83;;
6131;SDS011;3097;42.692;23.278;2024-01-15T01:08:46;140.27;;;47.00;;
6131;SDS011;3097;42.692;23.278;2024-01-15T01:11:14;143.53;;;45.63;;
6131;SDS011;3097;42.692;23.278;2024-01-15T01:13:41;141.10;;;46.83;;
6131;SDS011;3097;42.692;23.278;2024-01-15T01:16:07;134.70;;;45.97;;
6131;SDS011;3097;42.692;23.278;2024-01-15T01:18:32;136.30;;;45.23;;
6131;SDS011;3097;42.692;23.278;2024-01-15T01:20:58;131.33;;;44.43;;
6131;SDS011;3097;42.692;23.278;2024-01-15T01:23:23;120.97;;;43.37;;
6131;SDS011;3097;42.692;23.278;2024-01-15T01:25:49;111.37;;;40.10;;
6131;SDS011;3097;42.692;23.278;2024-01-15T01:28:14;110.50;;;39.40;;
6131;SDS011;3097;42.692;23.278;2024-01-15T01:30:40;111.73;;;37.17;;
6131;SDS011;3097;42.692;23.278;2024-01-15T01:33:05;115.90;;;39.17;;
6131;SDS011;3097;42.692;23.278;2024-01-15T01:35:31;110.97;;;36.73;;
6131;SDS011;3097;42.692;23.278;2024-01-15T01:37:56;102.57;;;36.40;;
6131;SDS011;3097;42.692;23.278;2024-01-15T01:40:22;105.87;;;36.90;;
6131;SDS011;3097;42.692;23.278;2024-01-15T01:42:47;114.43;;;36.63;;
6131;SDS011;3097;42.692;23.278;2024-01-15T01:45:14;101.47;;;35.47;;
6131;SDS011;3097;42.692;23.278;2024-01-15T01:47:40;104.50;;;35.80;;
6131;SDS011;3097;42.692;23.278;2024-01-15T01:50:06;100.57;;;33.57;;
6131;SDS011;3097;42.692;23.278;2024-01-15T01:52:32;105.17;;;36.57;;
6131;SDS011;3097;42.692;23.278;2024-01-15T01:54:58;113.50;;;37.47;;
6131;SDS011;3097;42.692;23.278;2024-01-15T01:57:26;103.17;;;36.07;;
6131;SDS011;3097;42.692;23.278;2024-01-15T01:59:52;104.07;;;36.90;;
6131;SDS011;3097;42.692;23.278;2024-01-15T02:02:18;122.47;;;39.77;;
6131;SDS011;3097;42.692;23.278;2024-01-15T02:04:45;103.97;;;36.43;;
6131;SDS011;3097;42.692;23.278;2024-01-15T02:07:12;102.60;;;35.40;;
6131;SDS011;3097;42.692;23.278;2024-01-15T02:09:38;100.10;;;34.73;;
6131;SDS011;3097;42.692;23.278;2024-01-15T02:12:03;100.00;;;34.17;;
6131;SDS011;3097;42.692;23.278;2024-01-15T02:14:29;87.37;;;31.60;;
6131;SDS011;3097;42.692;23.278;2024-01-15T02:16:55;89.23;;;32.27;;
6131;SDS011;3097;42.692;23.278;2024-01-15T02:19:20;90.87;;;31.67;;
6131;SDS011;3097;42.692;23.278;2024-01-15T02:21:46;101.30;;;33.03;;
6131;SDS011;3097;42.692;23.278;2024-01-15T02:24:11;91.77;;;33.37;;
6131;SDS011;3097;42.692;23.278;2024-01-15T02:26:37;84.27;;;29.67;;
6131;SDS011;3097;42.692;23.278;2024-01-15T02:29:03;87.10;;;31.67;;
6131;SDS011;3097;42.692;23.278;2024-01-15T02:31:32;88.50;;;31.33;;
6131;SDS011;3097;42.692;23.278;2024-01-15T02:33:57;95.40;;;33.03;;
6131;SDS011;3097;42.692;23.278;2024-01-15T02:36:23;92.37;;;32.83;;
6131;SDS011;3097;42.692;23.278;2024-01-15T02:38:48;85.23;;;30.93;;
6131;SDS011;3097;42.692;23.278;2024-01-15T02:41:14;88.83;;;30.10;;
6131;SDS011;3097;42.692;23.278;2024-01-15T02:43:40;87.00;;;30.07;;
6131;SDS011;3097;42.692;23.278;2024-01-15T02:46:06;81.40;;;29.93;;
6131;SDS011;3097;42.692;23.278;2024-01-15T02:48:32;88.37;;;30.77;;
6131;SDS011;3097;42.692;23.278;2024-01-15T02:50:58;91.40;;;31.10;;
6131;SDS011;3097;42.692;23.278;2024-01-15T02:53:24;80.50;;;29.83;;
6131;SDS011;3097;42.692;23.278;2024-01-15T02:55:50;78.63;;;27.67;;
6131;SDS011;3097;42.692;23.278;2024-01-15T02:58:15;78.53;;;29.20;;
6131;SDS011;3097;42.692;23.278;2024-01-15T03:00:41;80.40;;;29.83;;
6131;SDS011;3097;42.692;23.278;2024-01-15T03:03:07;76.83;;;28.60;;
6131;SDS011;3097;42.692;23.278;2024-01-15T03:05:33;81.77;;;28.70;;
6131;SDS011;3097;42.692;23.278;2024-01-15T03:07:58;95.83;;;33.97;;
6131;SDS011;3097;42.692;23.278;2024-01-15T03:10:24;85.17;;;30.37;;
6131;SDS011;3097;42.692;23.278;2024-01-15T03:12:49;97.87;;;34.43;;
6131;SDS011;3097;42.692;23.278;2024-01-15T03:15:15;132.77;;;43.47;;
6131;SDS011;3097;42.692;23.278;2024-01-15T03:17:43;123.97;;;43.10;;
6131;SDS011;3097;42.692;23.278;2024-01-15T03:20:09;149.73;;;49.33;;
6131;SDS011;3097;42.692;23.278;2024-01-15T03:22:35;139.77;;;46.70;;
6131;SDS011;3097;42.692;23.278;2024-01-15T03:25:01;145.27;;;47.20;;
6131;SDS011;3097;42.692;23.278;2024-01-15T03:27:26;146.13;;;50.60;;
6131;SDS011;3097;42.692;23.278;2024-01-15T03:29:52;135.20;;;46.63;;
6131;SDS011;3097;42.692;23.278;2024-01-15T03:32:17;128.37;;;45.90;;
6131;SDS011;3097;42.692;23.278;2024-01-15T03:34:44;125.33;;;43.93;;
6131;SDS011;3097;42.692;23.278;2024-01-15T03:37:11;119.93;;;42.07;;
6131;SDS011;3097;42.692;23.278;2024-01-15T03:39:36;143.73;;;49.50;;
6131;SDS011;3097;42.692;23.278;2024-01-15T03:42:02;154.33;;;53.27;;
6131;SDS011;3097;42.692;23.278;2024-01-15T03:44:27;161.23;;;57.10;;
6131;SDS011;3097;42.692;23.278;2024-01-15T03:46:53;165.00;;;56.03;;
6131;SDS011;3097;42.692;23.278;2024-01-15T03:49:18;158.27;;;55.33;;
6131;SDS011;3097;42.692;23.278;2024-01-15T03:51:44;155.47;;;54.97;;
6131;SDS011;3097;42.692;23.278;2024-01-15T03:54:10;156.20;;;57.27;;
6131;SDS011;3097;42.692;23.278;2024-01-15T03:56:35;151.50;;;54.73;;
6131;SDS011;3097;42.692;23.278;2024-01-15T03:59:01;177.43;;;58.97;;
6131;SDS011;3097;42.692;23.278;2024-01-15T04:01:26;177.03;;;58.13;;
6131;SDS011;3097;42.692;23.278;2024-01-15T04:03:52;172.60;;;57.43;;
6131;SDS011;3097;42.692;23.278;2024-01-15T04:06:17;155.87;;;55.60;;
6131;SDS011;3097;42.692;23.278;2024-01-15T04:08:43;163.50;;;54.60;;
6131;SDS011;3097;42.692;23.278;2024-01-15T04:11:08;165.47;;;56.63;;
6131;SDS011;3097;42.692;23.278;2024-01-15T04:13:34;173.47;;;58.63;;
6131;SDS011;3097;42.692;23.278;2024-01-15T04:15:59;177.30;;;58.13;;
6131;SDS011;3097;42.692;23.278;2024-01-15T04:18:25;172.23;;;61.30;;
6131;SDS011;3097;42.692;23.278;2024-01-15T04:20:51;183.57;;;63.60;;
6131;SDS011;3097;42.692;23.278;2024-01-15T04:23:16;194.73;;;62.07;;
6131;SDS011;3097;42.692;23.278;2024-01-15T04:25:42;192.40;;;64.10;;
6131;SDS011;3097;42.692;23.278;2024-01-15T04:28:11;187.50;;;63.50;;
6131;SDS011;3097;42.692;23.278;2024-01-15T04:30:37;180.03;;;62.73;;
6131;SDS011;3097;42.692;23.278;2024-01-15T04:33:02;199.53;;;71.13;;
6131;SDS011;3097;42.692;23.278;2024-01-15T04:35:28;198.43;;;67.90;;
6131;SDS011;3097;42.692;23.278;2024-01-15T04:37:54;201.17;;;72.30;;
6131;SDS011;3097;42.692;23.278;2024-01-15T04:40:19;194.47;;;64.70;;
6131;SDS011;3097;42.692;23.278;2024-01-15T04:42:45;186.90;;;66.33;;
6131;SDS011;3097;42.692;23.278;2024-01-15T04:45:13;194.77;;;65.07;;
6131;SDS011;3097;42.692;23.278;2024-01-15T04:47:39;182.90;;;65.50;;
6131;SDS011;3097;42.692;23.278;2024-01-15T04:50:05;195.70;;;67.57;;
6131;SDS011;3097;42.692;23.278;2024-01-15T04:52:31;195.23;;;67.57;;
6131;SDS011;3097;42.692;23.278;2024-01-15T04:54:57;192.90;;;62.90;;
6131;SDS011;3097;42.692;23.278;2024-01-15T04:57:22;188.50;;;66.60;;
6131;SDS011;3097;42.692;23.278;2024-01-15T04:59:48;193.80;;;68.53;;
6131;SDS011;3097;42.692;23.278;2024-01-15T05:02:13;190.70;;;65.20;;
6131;SDS011;3097;42.692;23.278;2024-01-15T05:04:38;196.27;;;66.47;;
6131;SDS011;3097;42.692;23.278;2024-01-15T05:07:04;194.60;;;68.57;;
6131;SDS011;3097;42.692;23.278;2024-01-15T05:09:30;195.23;;;63.10;;
6131;SDS011;3097;42.692;23.278;2024-01-15T05:11:55;189.87;;;64.83;;
6131;SDS011;3097;42.692;23.278;2024-01-15T05:14:21;194.00;;;66.27;;
6131;SDS011;3097;42.692;23.278;2024-01-15T05:16:47;199.83;;;67.70;;
6131;SDS011;3097;42.692;23.278;2024-01-15T05:19:13;189.43;;;67.87;;
6131;SDS011;3097;42.692;23.278;2024-01-15T05:21:38;184.83;;;65.00;;
6131;SDS011;3097;42.692;23.278;2024-01-15T05:24:04;216.07;;;72.27;;
6131;SDS011;3097;42.692;23.278;2024-01-15T05:26:30;256.87;;;91.23;;
6131;SDS011;3097;42.692;23.278;2024-01-15T05:28:55;259.30;;;92.60;;
6131;SDS011;3097;42.692;23.278;2024-01-15T05:31:21;259.07;;;92.03;;
6131;SDS011;3097;42.692;23.278;2024-01-15T05:33:46;250.53;;;89.27;;
6131;SDS011;3097;42.692;23.278;2024-01-15T05:36:12;250.03;;;88.03;;
6131;SDS011;3097;42.692;23.278;2024-01-15T05:38:37;238.20;;;83.13;;
6131;SDS011;3097;42.692;23.278;2024-01-15T05:41:04;249.87;;;86.67;;
6131;SDS011;3097;42.692;23.278;2024-01-15T05:43:30;249.03;;;87.43;;
6131;SDS011;3097;42.692;23.278;2024-01-15T05:45:56;191.60;;;64.10;;
6131;SDS011;3097;42.692;23.278;2024-01-15T05:48:21;193.33;;;66.70;;
6131;SDS011;3097;42.692;23.278;2024-01-15T05:50:47;190.57;;;64.60;;
6131;SDS011;3097;42.692;23.278;2024-01-15T05:53:12;208.83;;;69.73;;
6131;SDS011;3097;42.692;23.278;2024-01-15T05:55:38;215.87;;;71.93;;
6131;SDS011;3097;42.692;23.278;2024-01-15T05:58:04;257.13;;;88.83;;
6131;SDS011;3097;42.692;23.278;2024-01-15T06:00:30;275.23;;;96.57;;
6131;SDS011;3097;42.692;23.278;2024-01-15T06:02:58;268.63;;;99.17;;
6131;SDS011;3097;42.692;23.278;2024-01-15T06:05:24;266.27;;;95.67;;
6131;SDS011;3097;42.692;23.278;2024-01-15T06:07:49;286.90;;;98.03;;
6131;SDS011;3097;42.692;23.278;2024-01-15T06:10:15;273.33;;;89.20;;
6131;SDS011;3097;42.692;23.278;2024-01-15T06:12:42;235.37;;;77.43;;
6131;SDS011;3097;42.692;23.278;2024-01-15T06:15:09;211.97;;;74.40;;
6131;SDS011;3097;42.692;23.278;2024-01-15T06:17:35;227.17;;;76.47;;
6131;SDS011;3097;42.692;23.278;2024-01-15T06:20:01;208.60;;;74.83;;
6131;SDS011;3097;42.692;23.278;2024-01-15T06:22:26;228.30;;;79.60;;
6131;SDS011;3097;42.692;23.278;2024-01-15T06:24:52;203.27;;;69.67;;
6131;SDS011;3097;42.692;23.278;2024-01-15T06:27:17;222.57;;;75.37;;
6131;SDS011;3097;42.692;23.278;2024-01-15T06:29:44;226.93;;;77.87;;
6131;SDS011;3097;42.692;23.278;2024-01-15T06:32:13;239.23;;;83.27;;
6131;SDS011;3097;42.692;23.278;2024-01-15T06:34:39;275.03;;;98.67;;
6131;SDS011;3097;42.692;23.278;2024-01-15T06:37:05;264.80;;;91.13;;
6131;SDS011;3097;42.692;23.278;2024-01-15T06:39:30;209.97;;;71.57;;
6131;SDS011;3097;42.692;23.278;2024-01-15T06:41:56;158.50;;;53.20;;
6131;SDS011;3097;42.692;23.278;2024-01-15T06:44:22;155.77;;;55.27;;
6131;SDS011;3097;42.692;23.278;2024-01-15T06:46:47;172.67;;;58.67;;
6131;SDS011;3097;42.692;23.278;2024-01-15T06:49:13;172.10;;;62.47;;
6131;SDS011;3097;42.692;23.278;2024-01-15T06:51:39;181.80;;;65.10;;
6131;SDS011;3097;42.692;23.278;2024-01-15T06:54:04;186.13;;;65.20;;
6131;SDS011;3097;42.692;23.278;2024-01-15T06:56:31;175.67;;;64.13;;
6131;SDS011;3097;42.692;23.278;2024-01-15T06:58:57;209.30;;;73.67;;
6131;SDS011;3097;42.692;23.278;2024-01-15T07:01:23;194.93;;;68.37;;
6131;SDS011;3097;42.692;23.278;2024-01-15T07:03:48;199.10;;;71.10;;
6131;SDS011;3097;42.692;23.278;2024-01-15T07:06:14;205.27;;;74.37;;
6131;SDS011;3097;42.692;23.278;2024-01-15T07:08:40;196.93;;;73.10;;
6131;SDS011;3097;42.692;23.278;2024-01-15T07:11:06;203.53;;;73.40;;
6131;SDS011;3097;42.692;23.278;2024-01-15T07:13:32;192.47;;;71.67;;
6131;SDS011;3097;42.692;23.278;2024-01-15T07:15:58;183.50;;;67.30;;
6131;SDS011;3097;42.692;23.278;2024-01-15T07:18:24;192.27;;;72.77;;
6131;SDS011;3097;42.692;23.278;2024-01-15T07:20:50;200.93;;;73.77;;
6131;SDS011;3097;42.692;23.278;2024-01-15T07:23:16;192.60;;;71.07;;
6131;SDS011;3097;42.692;23.278;2024-01-15T07:25:42;170.17;;;64.33;;
6131;SDS011;3097;42.692;23.278;2024-01-15T07:28:08;164.53;;;59.33;;
6131;SDS011;3097;42.692;23.278;2024-01-15T07:30:33;178.23;;;64.47;;
6131;SDS011;3097;42.692;23.278;2024-01-15T07:32:59;174.10;;;60.30;;
6131;SDS011;3097;42.692;23.278;2024-01-15T07:35:24;172.20;;;59.97;;
6131;SDS011;3097;42.692;23.278;2024-01-15T07:37:50;160.57;;;60.13;;
6131;SDS011;3097;42.692;23.278;2024-01-15T07:40:16;173.63;;;61.70;;
6131;SDS011;3097;42.692;23.278;2024-01-15T07:42:41;175.77;;;64.97;;
6131;SDS011;3097;42.692;23.278;2024-01-15T07:45:08;166.37;;;63.90;;
6131;SDS011;3097;42.692;23.278;2024-01-15T07:47:34;186.67;;;65.60;;
6131;SDS011;3097;42.692;23.278;2024-01-15T07:50:00;188.23;;;67.03;;
6131;SDS011;3097;42.692;23.278;2024-01-15T07:52:25;185.87;;;66.93;;
6131;SDS011;3097;42.692;23.278;2024-01-15T07:54:51;170.27;;;62.20;;
6131;SDS011;3097;42.692;23.278;2024-01-15T07:57:16;164.40;;;60.17;;
6131;SDS011;3097;42.692;23.278;2024-01-15T07:59:42;165.07;;;60.33;;
6131;SDS011;3097;42.692;23.278;2024-01-15T08:02:07;153.83;;;58.27;;
6131;SDS011;3097;42.692;23.278;2024-01-15T08:04:33;142.03;;;55.10;;
6131;SDS011;3097;42.692;23.278;2024-01-15T08:06:58;147.97;;;54.73;;
6131;SDS011;3097;42.692;23.278;2024-01-15T08:09:24;142.57;;;54.13;;
6131;SDS011;3097;42.692;23.278;2024-01-15T08:11:49;132.80;;;54.47;;
6131;SDS011;3097;42.692;23.278;2024-01-15T08:14:15;129.33;;;51.83;;
6131;SDS011;3097;42.692;23.278;2024-01-15T08:16:41;127.53;;;50.17;;
6131;SDS011;3097;42.692;23.278;2024-01-15T08:19:08;135.33;;;53.17;;
6131;SDS011;3097;42.692;23.278;2024-01-15T08:21:34;139.07;;;54.47;;
6131;SDS011;3097;42.692;23.278;2024-01-15T08:24:00;134.33;;;52.23;;
6131;SDS011;3097;42.692;23.278;2024-01-15T08:26:26;134.00;;;53.83;;
6131;SDS011;3097;42.692;23.278;2024-01-15T08:28:51;183.93;;;73.00;;
6131;SDS011;3097;42.692;23.278;2024-01-15T08:31:17;173.33;;;64.80;;
6131;SDS011;3097;42.692;23.278;2024-01-15T08:33:42;146.47;;;55.83;;
6131;SDS011;3097;42.692;23.278;2024-01-15T08:36:11;137.37;;;55.37;;
6131;SDS011;3097;42.692;23.278;2024-01-15T08:38:39;137.80;;;52.03;;
6131;SDS011;3097;42.692;23.278;2024-01-15T08:41:04;136.90;;;56.30;;
6131;SDS011;3097;42.692;23.278;2024-01-15T08:43:30;155.43;;;55.07;;
6131;SDS011;3097;42.692;23.278;2024-01-15T08:45:56;145.93;;;55.13;;
6131;SDS011;3097;42.692;23.278;2024-01-15T08:48:22;158.03;;;58.80;;
6131;SDS011;3097;42.692;23.278;2024-01-15T08:50:48;147.77;;;59.67;;
6131;SDS011;3097;42.692;23.278;2024-01-15T08:53:14;151.40;;;58.60;;
6131;SDS011;3097;42.692;23.278;2024-01-15T08:55:40;146.70;;;58.03;;
6131;SDS011;3097;42.692;23.278;2024-01-15T08:58:07;142.63;;;57.73;;
6131;SDS011;3097;42.692;23.278;2024-01-15T09:00:33;149.73;;;57.07;;
6131;SDS011;3097;42.692;23.278;2024-01-15T09:02:59;153.40;;;61.43;;
6131;SDS011;3097;42.692;23.278;2024-01-15T09:05:25;147.50;;;59.17;;
6131;SDS011;3097;42.692;23.278;2024-01-15T09:07:50;145.80;;;60.13;;
6131;SDS011;3097;42.692;23.278;2024-01-15T09:10:17;153.83;;;61.17;;
6131;SDS011;3097;42.692;23.278;2024-01-15T09:12:43;143.07;;;58.97;;
6131;SDS011;3097;42.692;23.278;2024-01-15T09:15:09;141.33;;;55.17;;
6131;SDS011;3097;42.692;23.278;2024-01-15T09:17:35;134.87;;;54.23;;
6131;SDS011;3097;42.692;23.278;2024-01-15T09:20:00;117.60;;;49.80;;
6131;SDS011;3097;42.692;23.278;2024-01-15T09:22:26;121.83;;;49.47;;
6131;SDS011;3097;42.692;23.278;2024-01-15T09:24:52;117.60;;;50.03;;
6131;SDS011;3097;42.692;23.278;2024-01-15T09:27:18;116.13;;;48.13;;
6131;SDS011;3097;42.692;23.278;2024-01-15T09:29:43;114.07;;;49.27;;
6131;SDS011;3097;42.692;23.278;2024-01-15T09:32:11;119.47;;;49.77;;
6131;SDS011;3097;42.692;23.278;2024-01-15T09:34:37;118.90;;;49.50;;
6131;SDS011;3097;42.692;23.278;2024-01-15T09:37:04;118.80;;;49.60;;
6131;SDS011;3097;42.692;23.278;2024-01-15T09:39:30;126.37;;;52.13;;
6131;SDS011;3097;42.692;23.278;2024-01-15T09:41:57;125.10;;;55.17;;
6131;SDS011;3097;42.692;23.278;2024-01-15T09:44:23;135.20;;;56.03;;
6131;SDS011;3097;42.692;23.278;2024-01-15T09:46:49;150.43;;;60.23;;
6131;SDS011;3097;42.692;23.278;2024-01-15T09:49:18;145.27;;;59.90;;
6131;SDS011;3097;42.692;23.278;2024-01-15T09:51:44;131.70;;;57.67;;
6131;SDS011;3097;42.692;23.278;2024-01-15T09:54:09;133.17;;;55.50;;
6131;SDS011;3097;42.692;23.278;2024-01-15T09:56:35;126.53;;;51.93;;
6131;SDS011;3097;42.692;23.278;2024-01-15T09:59:01;156.20;;;64.63;;
6131;SDS011;3097;42.692;23.278;2024-01-15T10:01:29;138.50;;;57.40;;
6131;SDS011;3097;42.692;23.278;2024-01-15T10:03:56;140.53;;;57.73;;
6131;SDS011;3097;42.692;23.278;2024-01-15T10:06:22;133.53;;;55.23;;
6131;SDS011;3097;42.692;23.278;2024-01-15T10:08:48;156.90;;;66.90;;
6131;SDS011;3097;42.692;23.278;2024-01-15T10:11:17;153.80;;;64.50;;
6131;SDS011;3097;42.692;23.278;2024-01-15T10:13:46;137.20;;;57.80;;
6131;SDS011;3097;42.692;23.278;2024-01-15T10:16:12;147.10;;;61.93;;
6131;SDS011;3097;42.692;23.278;2024-01-15T10:18:38;131.50;;;56.30;;
6131;SDS011;3097;42.692;23.278;2024-01-15T10:21:06;127.23;;;54.13;;
6131;SDS011;3097;42.692;23.278;2024-01-15T10:23:33;118.33;;;48.67;;
6131;SDS011;3097;42.692;23.278;2024-01-15T10:25:59;95.53;;;41.57;;
6131;SDS011;3097;42.692;23.278;2024-01-15T10:28:28;86.10;;;39.13;;
6131;SDS011;3097;42.692;23.278;2024-01-15T10:30:56;90.90;;;42.47;;
6131;SDS011;3097;42.692;23.278;2024-01-15T10:33:24;98.30;;;41.17;;
6131;SDS011;3097;42.692;23.278;2024-01-15T10:36:00;84.13;;;39.13;;
6131;SDS011;3097;42.692;23.278;2024-01-15T10:38:25;76.97;;;32.83;;
6131;SDS011;3097;42.692;23.278;2024-01-15T10:40:55;67.70;;;31.70;;
6131;SDS011;3097;42.692;23.278;2024-01-15T10:43:21;64.80;;;30.87;;
6131;SDS011;3097;42.692;23.278;2024-01-15T10:45:48;59.10;;;29.03;;
6131;SDS011;3097;42.692;23.278;2024-01-15T10:48:18;71.50;;;30.10;;
6131;SDS011;3097;42.692;23.278;2024-01-15T10:50:45;78.10;;;29.83;;
6131;SDS011;3097;42.692;23.278;2024-01-15T10:53:13;65.10;;;29.23;;
6131;SDS011;3097;42.692;23.278;2024-01-15T10:55:40;48.17;;;22.57;;
6131;SDS011;3097;42.692;23.278;2024-01-15T10:58:06;53.63;;;25.47;;
6131;SDS011;3097;42.692;23.278;2024-01-15T11:00:33;44.13;;;22.87;;
6131;SDS011;3097;42.692;23.278;2024-01-15T11:03:00;42.77;;;21.63;;
6131;SDS011;3097;42.692;23.278;2024-01-15T11:05:28;41.40;;;20.63;;
6131;SDS011;3097;42.692;23.278;2024-01-15T11:07:56;39.53;;;20.53;;
6131;SDS011;3097;42.692;23.278;2024-01-15T11:10:44;47.87;;;22.50;;
6131;SDS011;3097;42.692;23.278;2024-01-15T11:13:15;44.40;;;22.70;;
6131;SDS011;3097;42.692;23.278;2024-01-15T11:18:43;52.27;;;25.87;;
6131;SDS011;3097;42.692;23.278;2024-01-15T11:21:27;53.63;;;27.23;;
6131;SDS011;3097;42.692;23.278;2024-01-15T11:23:56;57.07;;;25.90;;
6131;SDS011;3097;42.692;23.278;2024-01-15T11:26:29;56.43;;;28.10;;
6131;SDS011;3097;42.692;23.278;2024-01-15T11:28:59;53.70;;;26.57;;
6131;SDS011;3097;42.692;23.278;2024-01-15T11:32:11;54.87;;;25.57;;
6131;SDS011;3097;42.692;23.278;2024-01-15T11:34:11;50.83;;;23.47;;
6131;SDS011;3097;42.692;23.278;2024-01-15T11:37:22;47.53;;;23.90;;
6131;SDS011;3097;42.692;23.278;2024-01-15T11:41:52;57.63;;;24.50;;
6131;SDS011;3097;42.692;23.278;2024-01-15T11:44:20;52.50;;;24.77;;
6131;SDS011;3097;42.692;23.278;2024-01-15T11:46:53;50.67;;;23.90;;
6131;SDS011;3097;42.692;23.278;2024-01-15T11:52:30;50.27;;;25.37;;
6131;SDS011;3097;42.692;23.278;2024-01-15T11:57:45;61.63;;;25.83;;
6131;SDS011;3097;42.692;23.278;2024-01-15T12:00:19;51.07;;;25.03;;
6131;SDS011;3097;42.692;23.278;2024-01-15T12:02:46;46.43;;;24.00;;
6131;SDS011;3097;42.692;23.278;2024-01-15T12:05:13;46.97;;;23.13;;
6131;SDS011;3097;42.692;23.278;2024-01-15T12:07:44;43.90;;;23.17;;
6131;SDS011;3097;42.692;23.278;2024-01-15T12:10:12;50.17;;;23.97;;
6131;SDS011;3097;42.692;23.278;2024-01-15T12:15:13;43.77;;;22.93;;
6131;SDS011;3097;42.692;23.278;2024-01-15T12:17:39;49.00;;;23.50;;
6131;SDS011;3097;42.692;23.278;2024-01-15T12:20:05;49.60;;;23.03;;
6131;SDS011;3097;42.692;23.278;2024-01-15T12:22:31;50.90;;;24.47;;
6131;SDS011;3097;42.692;23.278;2024-01-15T12:24:57;50.77;;;23.57;;
6131;SDS011;3097;42.692;23.278;2024-01-15T12:27:23;49.63;;;24.83;;
6131;SDS011;3097;42.692;23.278;2024-01-15T12:29:49;55.83;;;25.37;;
6131;SDS011;3097;42.692;23.278;2024-01-15T12:32:14;49.20;;;24.43;;
6131;SDS011;3097;42.692;23.278;2024-01-15T12:34:40;44.23;;;22.73;;
6131;SDS011;3097;42.692;23.278;2024-01-15T12:37:06;45.13;;;21.97;;
6131;SDS011;3097;42.692;23.278;2024-01-15T12:39:36;48.20;;;23.40;;
6131;SDS011;3097;42.692;23.278;2024-01-15T12:42:02;47.30;;;21.70;;
6131;SDS011;3097;42.692;23.278;2024-01-15T12:44:28;46.17;;;21.67;;
6131;SDS011;3097;42.692;23.278;2024-01-15T12:46:54;49.53;;;23.97;;
6131;SDS011;3097;42.692;23.278;2024-01-15T12:49:21;53.47;;;25.90;;
6131;SDS011;3097;42.692;23.278;2024-01-15T12:51:52;50.63;;;25.33;;
6131;SDS011;3097;42.692;23.278;2024-01-15T12:54:22;56.07;;;26.60;;
6131;SDS011;3097;42.692;23.278;2024-01-15T12:56:49;54.23;;;27.03;;
6131;SDS011;3097;42.692;23.278;2024-01-15T12:59:15;60.37;;;27.33;;
6131;SDS011;3097;42.692;23.278;2024-01-15T13:01:40;65.17;;;26.30;;
6131;SDS011;3097;42.692;23.278;2024-01-15T13:04:06;57.83;;;26.37;;
6131;SDS011;3097;42.692;23.278;2024-01-15T13:06:36;163.47;;;46.80;;
6131;SDS011;3097;42.692;23.278;2024-01-15T13:09:04;132.13;;;43.40;;
6131;SDS011;3097;42.692;23.278;2024-01-15T13:11:31;88.03;;;34.80;;
6131;SDS011;3097;42.692;23.278;2024-01-15T13:13:57;80.93;;;30.17;;
6131;SDS011;3097;42.692;23.278;2024-01-15T13:16:23;70.97;;;30.87;;
6131;SDS011;3097;42.692;23.278;2024-01-15T13:18:52;75.30;;;31.83;;
6131;SDS011;3097;42.692;23.278;2024-01-15T13:21:17;64.23;;;29.67;;
6131;SDS011;3097;42.692;23.278;2024-01-15T13:23:43;66.73;;;28.87;;
6131;SDS011;3097;42.692;23.278;2024-01-15T13:26:08;60.73;;;29.27;;
6131;SDS011;3097;42.692;23.278;2024-01-15T13:28:34;63.93;;;29.70;;
6131;SDS011;3097;42.692;23.278;2024-01-15T13:31:00;70.97;;;30.50;;
6131;SDS011;3097;42.692;23.278;2024-01-15T13:33:26;83.70;;;37.03;;
6131;SDS011;3097;42.692;23.278;2024-01-15T13:35:51;83.60;;;37.70;;
6131;SDS011;3097;42.692;23.278;2024-01-15T13:38:17;72.90;;;32.67;;
6131;SDS011;3097;42.692;23.278;2024-01-15T13:40:43;81.53;;;34.20;;
6131;SDS011;3097;42.692;23.278;2024-01-15T13:43:10;68.53;;;31.67;;
6131;SDS011;3097;42.692;23.278;2024-01-15T13:45:36;60.40;;;30.03;;
6131;SDS011;3097;42.692;23.278;2024-01-15T13:48:02;79.10;;;35.20;;
6131;SDS011;3097;42.692;23.278;2024-01-15T13:50:34;77.57;;;37.20;;
6131;SDS011;3097;42.692;23.278;2024-01-15T13:53:02;83.73;;;38.00;;
6131;SDS011;3097;42.692;23.278;2024-01-15T13:55:28;102.70;;;46.03;;
6131;SDS011;3097;42.692;23.278;2024-01-15T13:57:54;121.83;;;49.00;;
6131;SDS011;3097;42.692;23.278;2024-01-15T14:00:20;117.23;;;51.87;;
6131;SDS011;3097;42.692;23.278;2024-01-15T14:02:46;116.97;;;51.20;;
6131;SDS011;3097;42.692;23.278;2024-01-15T14:05:11;138.27;;;59.80;;
6131;SDS011;3097;42.692;23.278;2024-01-15T14:07:41;131.40;;;55.50;;
6131;SDS011;3097;42.692;23.278;2024-01-15T14:10:08;117.47;;;50.40;;
6131;SDS011;3097;42.692;23.278;2024-01-15T14:12:35;165.30;;;70.73;;
6131;SDS011;3097;42.692;23.278;2024-01-15T14:15:01;170.93;;;68.23;;
6131;SDS011;3097;42.692;23.278;2024-01-15T14:17:28;130.53;;;54.23;;
6131;SDS011;3097;42.692;23.278;2024-01-15T14:19:54;137.03;;;55.87;;
6131;SDS011;3097;42.692;23.278;2024-01-15T14:22:19;135.83;;;56.80;;
6131;SDS011;3097;42.692;23.278;2024-01-15T14:24:45;149.47;;;60.17;;
6131;SDS011;3097;42.692;23.278;2024-01-15T14:27:10;144.57;;;55.47;;
6131;SDS011;3097;42.692;23.278;2024-01-15T14:29:36;99.73;;;41.03;;
6131;SDS011;3097;42.692;23.278;2024-01-15T14:32:02;94.23;;;42.07;;
6131;SDS011;3097;42.692;23.278;2024-01-15T14:34:28;100.77;;;44.53;;